Malone, WA

4:30 PM PST on February 12, 2016 (GMT -0800)
South Elma | | Change Station
CLOSE
Current Station
Personal Weather Station
Location: Elma, WA
Elevation: 82 ft
Nearby Weather Stations
Active Advisory: Areal Flood Watch Active Notice: Public Information Statement

Elev 82 ft 46.98 °N, 123.41 °W | Updated 12 minutes ago

Mostly Cloudy
Mostly Cloudy
52.2 °F
Feels Like 52.2 °F
N
2.2
Wind Variable Wind from ENE

Today
High -- | Low -- °F
--% Chance of Precip.
Yesterday
High -- | Low -- °F
Precip. -- in
Pressure 30.15 in
Visibility 10.0 miles
Clouds Few 7000 ft
Dew Point 49 °F
Humidity 88%
Rainfall 0.33 in
Snow Depth Not available.
7:23 AM 5:32 PM
Waxing Crescent, 25% visible
METAR KOLM 122354Z 25007KT 10SM FEW070 14/06 A3015 RMK AO2 SLP208 60000 T01390056 10144 20111 53001
Pressure 30.15 in
Visibility 10.0 miles
Clouds Few 7000 ft
Dew Point 49 °F
Humidity 88%
Rainfall 0.33 in
Snow Depth Not available.
7:23 AM 5:32 PM
Waxing Crescent, 25% visible
METAR KOLM 122354Z 25007KT 10SM FEW070 14/06 A3015 RMK AO2 SLP208 60000 T01390056 10144 20111 53001

10-Day Weather Forecast

Almanac

Astronomy

Feb. 12, 2016 Rise Set
Actual Time
Civil Twilight
Nautical Twilight
Astronomical Twilight
Moon
Length of Visible Light
Length of Day
Tomorrow will be .
, % of the Moon is Illuminated

Today's Extremes

State Highs State Lows

Community

WunderPhotos

Upload Photos

1,892,439 photos uploaded!

WunderBlog® & News

Nearby

Air Quality

  Air Quality AQ Index Pollutant
Not available.

Snow Depth

Station Depth Elevation

Earthquake Activity

City Distance Mag. Time & Date
Minimum magnitude displayed is 2.5.

Coastal Water Temperatures

Place Temperature

Stations

Nearby Weather Stations

Station Location Temp. Windchill Dew Point Humidity Wind Precip. Elev Updated Type
                   

Watches & Warnings

Areal Flood Watch
Issued: 3:22 PM PST Feb. 12, 2016 – National Weather Service

... Flood Watch in effect through Saturday morning...

The National Weather Service in Seattle has issued a

* Flood Watch for a portion of northwest Washington... including the
following County... Mason.

* Through Saturday morning

* heavy rain this morning forced a sharp rise in the Skokomish
River. The river is still running high but is expected to crest
right below flood stage. A warm front will bring more heavy rain
Saturday afternoon through Saturday night. Forecast rain amounts
of 1-3 inches are likely in the Olympics which will likely push
the Skokomish River over flood stage.

Precautionary/preparedness actions...

A Flood Watch means there is a potential for flooding based on
current forecasts.

You should monitor later forecasts and be alert for possible flood
warnings. Those living in areas prone to flooding should be prepared
to take action should flooding develop.